Time;durP1;ratioP1;P1;durP2;ratioP2;P2;SDS_P1;SDS_P2;PMS_P1;PMS_P2;Temp;Humidity;BMP_temperature;BMP_pressure;BME280_temperature;BME280_humidity;BME280_pressure;Samples;Min_cycle;Max_cycle;Signal;HPM_P1;HPM_P2
2021/01/14 00:00:21;;;;;;;20.80;2.88;;;;;;;3.53;100.00;101821.13;4787791;29;20038;-90
2021/01/14 00:02:46;;;;;;;22.70;2.67;;;;;;;3.49;100.00;101831.59;4799250;29;20031;-90
2021/01/14 00:05:13;;;;;;;11.23;2.03;;;;;;;3.33;100.00;101804.56;4813577;29;20208;-90
2021/01/14 00:07:39;;;;;;;25.88;3.05;;;;;;;3.34;100.00;101814.16;4796715;29;20038;-90
2021/01/14 00:10:13;;;;;;;19.38;2.67;;;;;;;3.28;100.00;101795.84;4784960;29;20472;-90
2021/01/14 00:12:43;;;;;;;21.02;2.20;;;;;;;3.28;100.00;101814.16;4797880;29;20082;-90
2021/01/14 00:15:10;;;;;;;11.73;1.73;;;;;;;3.21;100.00;101817.59;4802247;29;20383;-90
2021/01/14 00:17:36;;;;;;;9.95;1.92;;;;;;;3.29;100.00;101824.59;4793850;29;20023;-89
2021/01/14 00:20:08;;;;;;;28.92;2.33;;;;;;;3.04;100.00;101802.78;4815341;29;20070;-89
2021/01/14 00:22:36;;;;;;;15.15;2.00;;;;;;;3.01;100.00;101805.41;4811460;29;20570;-89
2021/01/14 00:25:01;;;;;;;10.23;2.00;;;;;;;3.15;100.00;101821.06;4806833;29;20038;-89
2021/01/14 00:27:26;;;;;;;17.25;2.00;;;;;;;3.19;100.00;101824.56;4801279;29;20026;-89
2021/01/14 00:29:52;;;;;;;20.02;2.42;;;;;;;2.98;100.00;101799.28;4807469;29;20038;-90
2021/01/14 00:32:17;;;;;;;15.90;2.55;;;;;;;3.11;100.00;101816.72;4822345;29;20034;-89
2021/01/14 00:34:43;;;;;;;10.68;1.63;;;;;;;2.93;100.00;101794.06;4808968;29;20129;-89
2021/01/14 00:39:55;;;;;;;11.63;1.52;;;;;;;3.05;100.00;101809.75;4827156;29;20098;-89
2021/01/14 00:42:21;;;;;;;10.73;1.50;;;;;;;2.88;100.00;101789.69;4805629;29;20027;-89
2021/01/14 00:44:46;;;;;;;17.45;2.13;;;;;;;3.02;100.00;101819.34;4806713;29;20034;-89
2021/01/14 00:47:14;;;;;;;14.05;2.15;;;;;;;2.97;100.00;101801.03;4807899;29;20030;-90
2021/01/14 00:49:40;;;;;;;12.73;1.58;;;;;;;2.83;100.00;101789.69;4806182;29;20554;-90
2021/01/14 00:52:22;;;;;;;12.68;2.47;;;;;;;2.90;100.00;101814.94;4806750;29;20042;-89
2021/01/14 00:54:47;;;;;;;27.50;2.45;;;;;;;2.83;100.00;101797.53;4820153;29;20037;-89
2021/01/14 00:57:13;;;;;;;17.50;2.03;;;;;;;2.87;100.00;101812.34;4838113;29;20026;-89
2021/01/14 00:59:38;;;;;;;12.45;1.98;;;;;;;2.84;100.00;101805.34;4831662;29;20034;-89
2021/01/14 01:02:06;;;;;;;22.00;2.42;;;;;;;2.90;100.00;101803.63;4809765;29;20026;-89
2021/01/14 01:04:32;;;;;;;14.23;1.90;;;;;;;2.96;100.00;101822.81;4803142;29;20031;-90
2021/01/14 01:06:57;;;;;;;14.77;2.83;;;;;;;2.95;100.00;101813.19;4805937;29;20037;-89
2021/01/14 01:09:23;;;;;;;21.20;2.03;;;;;;;2.89;100.00;101826.25;4808772;29;20849;-88
2021/01/14 01:11:52;;;;;;;9.23;2.10;;;;;;;2.86;100.00;101826.22;4806336;29;20034;-87
2021/01/14 01:14:17;;;;;;;11.85;2.40;;;;;;;2.76;100.00;101811.41;4806430;29;20062;-87
2021/01/14 01:16:42;;;;;;;10.73;1.33;;;;;;;2.96;100.00;101838.47;4807741;29;20125;-87
2021/01/14 01:19:08;;;;;;;17.58;2.22;;;;;;;2.74;100.00;101813.16;4807493;29;20099;-87
2021/01/14 01:21:33;;;;;;;7.57;2.03;;;;;;;2.84;100.00;101833.19;4807728;29;20042;-87
2021/01/14 01:23:58;;;;;;;12.88;1.38;;;;;;;2.86;100.00;101836.66;4806965;29;20042;-87
2021/01/14 01:26:26;;;;;;;14.18;2.47;;;;;;;2.74;100.00;101815.75;4803410;29;20065;-90
2021/01/14 01:28:52;;;;;;;13.27;1.73;;;;;;;2.76;100.00;101806.19;4798620;29;20030;-89
2021/01/14 01:31:18;;;;;;;8.45;1.52;;;;;;;2.79;100.00;101827.09;4800415;29;20117;-89
2021/01/14 01:33:43;;;;;;;13.18;1.85;;;;;;;2.80;100.00;101832.31;4803334;29;20402;-89
2021/01/14 01:36:13;;;;;;;8.00;1.50;;;;;;;2.80;100.00;101832.31;4802451;29;20086;-89
2021/01/14 01:38:39;;;;;;;10.23;1.98;;;;;;;2.94;100.00;101858.47;4818611;29;20035;-89
2021/01/14 01:41:04;;;;;;;9.90;2.67;;;;;;;2.83;100.00;101862.78;4804098;29;20049;-89
2021/01/14 01:43:30;;;;;;;14.38;1.88;;;;;;;2.72;100.00;101839.25;4803261;29;20022;-89
2021/01/14 01:45:56;;;;;;;9.20;1.40;;;;;;;2.75;100.00;101841.88;4804017;29;20030;-89
2021/01/14 01:48:22;;;;;;;11.77;1.80;;;;;;;2.84;100.00;101869.75;4800466;29;20033;-87
2021/01/14 01:50:50;;;;;;;8.88;2.22;;;;;;;2.86;100.00;101875.84;4818877;29;20042;-87
2021/01/14 01:53:15;;;;;;;16.63;2.30;;;;;;;2.79;100.00;101861.91;4800869;29;20475;-87
2021/01/14 01:55:45;;;;;;;15.68;1.70;;;;;;;2.91;100.00;101879.34;4805259;29;20046;-87
2021/01/14 01:58:11;;;;;;;8.45;1.30;;;;;;;2.99;100.00;101877.63;4803417;29;20023;-87
2021/01/14 02:00:36;;;;;;;13.38;1.48;;;;;;;3.00;100.00;101887.22;4815717;29;20885;-87
2021/01/14 02:03:01;;;;;;;13.02;1.30;;;;;;;2.95;99.98;101896.78;4793562;29;20134;-87
2021/01/14 02:05:27;;;;;;;12.27;1.90;;;;;;;2.91;99.48;101883.69;4804781;29;20531;-87
2021/01/14 02:07:58;;;;;;;12.60;1.38;;;;;;;3.09;100.00;101896.81;4811557;29;20071;-87
2021/01/14 02:10:41;;;;;;;8.95;1.02;;;;;;;3.00;99.60;101896.78;4824560;29;20358;-87
2021/01/14 02:13:29;;;;;;;13.23;1.20;;;;;;;2.98;98.56;101902.00;4819819;29;20046;-86
2021/01/14 02:15:58;;;;;;;8.90;1.10;;;;;;;2.95;96.75;101896.78;4821644;29;20435;-87
2021/01/14 02:18:26;;;;;;;16.33;1.70;;;;;;;2.89;97.07;101890.66;4813651;29;20141;-86
2021/01/14 02:20:54;;;;;;;5.50;0.80;;;;;;;2.93;97.98;101887.19;4794715;29;20106;-86
2021/01/14 02:23:34;;;;;;;6.40;1.17;;;;;;;2.90;98.09;101906.31;4788994;29;20035;-86
2021/01/14 02:26:16;;;;;;;6.57;1.35;;;;;;;2.88;96.04;101908.06;4785566;29;20062;-87
2021/01/14 02:28:44;;;;;;;6.38;1.17;;;;;;;2.83;97.12;101907.19;4792202;29;20042;-87
2021/01/14 02:31:09;;;;;;;4.32;0.90;;;;;;;2.87;98.95;101927.22;4790221;29;20030;-87
2021/01/14 02:33:35;;;;;;;6.22;1.23;;;;;;;2.80;99.11;101917.59;4790876;29;20034;-87
2021/01/14 02:36:00;;;;;;;5.28;1.02;;;;;;;2.71;98.96;101908.00;4810861;29;20486;-87
2021/01/14 02:38:25;;;;;;;8.45;1.42;;;;;;;2.82;97.51;101902.81;4790905;29;20023;-87
2021/01/14 02:40:51;;;;;;;10.57;0.98;;;;;;;2.72;96.19;101894.09;4789048;29;20727;-87
2021/01/14 02:43:16;;;;;;;7.13;1.67;;;;;;;2.69;97.35;101896.66;4784341;29;20027;-88
2021/01/14 02:45:42;;;;;;;14.15;1.40;;;;;;;2.68;97.56;101889.69;4788927;29;20172;-89
2021/01/14 02:48:11;;;;;;;8.10;1.30;;;;;;;2.78;98.16;101920.22;4795248;29;20055;-88
2021/01/14 02:50:39;;;;;;;6.97;1.33;;;;;;;2.74;98.43;101901.91;4789537;29;20540;-89
2021/01/14 02:53:06;;;;;;;6.20;1.00;;;;;;;2.69;98.45;101912.31;4784697;29;20039;-89
2021/01/14 02:55:32;;;;;;;9.30;1.02;;;;;;;2.56;100.00;101920.94;4788148;29;20038;-89
2021/01/14 02:58:01;;;;;;;10.50;1.48;;;;;;;2.46;100.00;101891.34;4800596;29;20031;-89
2021/01/14 03:00:26;;;;;;;6.20;1.00;;;;;;;2.49;100.00;101908.72;4786445;29;20035;-90
2021/01/14 03:02:52;;;;;;;8.23;1.55;;;;;;;2.55;100.00;101919.22;4788399;29;20031;-89
2021/01/14 03:05:20;;;;;;;5.50;1.10;;;;;;;2.49;100.00;101913.97;4782717;29;20043;-89
2021/01/14 03:07:48;;;;;;;11.38;1.30;;;;;;;2.33;100.00;101892.13;4784948;29;20042;-89
2021/01/14 03:10:14;;;;;;;9.55;1.35;;;;;;;2.28;100.00;101893.81;4787322;29;20031;-89
2021/01/14 03:12:39;;;;;;;13.93;1.38;;;;;;;2.55;100.00;101907.03;4785916;29;20376;-89
2021/01/14 03:15:05;;;;;;;10.02;1.23;;;;;;;2.25;100.00;101907.72;4785254;29;20087;-89
2021/01/14 03:17:34;;;;;;;10.23;1.60;;;;;;;2.31;100.00;101902.56;4785008;29;20035;-88
2021/01/14 03:20:00;;;;;;;4.75;1.23;;;;;;;2.28;100.00;101904.25;4821720;29;20121;-88
2021/01/14 03:22:25;;;;;;;13.30;1.50;;;;;;;2.29;100.00;101908.59;4816264;29;20587;-88
2021/01/14 03:24:51;;;;;;;7.18;1.17;;;;;;;2.19;100.00;101894.63;4816371;29;20502;-89
2021/01/14 03:27:16;;;;;;;8.13;1.40;;;;;;;2.37;100.00;101916.50;4805536;29;20030;-89
2021/01/14 03:29:41;;;;;;;9.45;1.10;;;;;;;2.24;100.00;101913.78;4803288;29;20056;-89
2021/01/14 03:32:07;;;;;;;8.90;1.33;;;;;;;2.21;100.00;101911.19;4817062;29;20366;-89
2021/01/14 03:34:35;;;;;;;9.95;1.20;;;;;;;2.22;100.00;101919.88;4810629;29;20036;-87
2021/01/14 03:37:00;;;;;;;8.57;1.40;;;;;;;2.17;100.00;101892.88;4820519;29;20034;-89
2021/01/14 03:39:29;;;;;;;9.15;1.27;;;;;;;2.31;100.00;101917.34;4808235;29;20030;-89
2021/01/14 03:41:56;;;;;;;3.63;0.98;;;;;;;2.18;100.00;101899.84;4799785;29;20301;-87
2021/01/14 03:44:23;;;;;;;7.63;1.42;;;;;;;2.27;100.00;101915.56;4801200;29;21851;-88
2021/01/14 03:46:51;;;;;;;7.63;1.58;;;;;;;2.28;100.00;101915.56;4827430;29;20049;-89
2021/01/14 03:49:17;;;;;;;12.80;1.50;;;;;;;2.16;100.00;101892.03;4811865;29;20030;-89
2021/01/14 03:51:49;;;;;;;7.20;1.23;;;;;;;2.33;100.00;101915.59;4804422;29;20042;-89
2021/01/14 03:54:15;;;;;;;9.88;1.20;;;;;;;2.18;100.00;101894.63;4808147;29;20041;-88
2021/01/14 03:56:42;;;;;;;8.30;3.25;;;;;;;2.15;100.00;101874.59;4811518;29;20038;-87
2021/01/14 03:59:10;;;;;;;5.20;1.42;;;;;;;2.16;100.00;101880.69;4807571;29;20030;-88
2021/01/14 04:01:35;;;;;;;9.95;2.00;;;;;;;2.27;100.00;101910.34;4819770;29;20034;-88
2021/01/14 04:04:01;;;;;;;6.55;1.10;;;;;;;2.28;100.00;101904.25;4811637;29;20045;-89
2021/01/14 04:06:44;;;;;;;8.10;1.00;;;;;;;2.29;100.00;101913.81;4815625;29;20026;-88
2021/01/14 04:09:13;;;;;;;15.63;1.20;;;;;;;2.06;100.00;101872.81;4817144;29;20458;-88
2021/01/14 04:11:39;;;;;;;6.95;1.55;;;;;;;1.97;100.00;101887.53;4810217;29;20065;-88
2021/01/14 04:14:04;;;;;;;8.43;1.33;;;;;;;2.02;100.00;101889.31;4823998;29;20470;-88
2021/01/14 04:16:29;;;;;;;14.40;1.67;;;;;;;2.23;100.00;101913.78;4820059;29;20033;-88
2021/01/14 04:18:56;;;;;;;12.77;1.83;;;;;;;2.22;100.00;101917.28;4810190;29;20043;-87
2021/01/14 04:21:21;;;;;;;3.60;1.27;;;;;;;2.12;100.00;101905.03;4791469;29;20105;-88
2021/01/14 04:23:47;;;;;;;8.50;1.23;;;;;;;2.14;100.00;101922.41;4813024;29;20030;-88
2021/01/14 04:26:12;;;;;;;10.13;1.63;;;;;;;2.05;100.00;101896.25;4790936;29;20842;-89
2021/01/14 04:28:39;;;;;;;10.07;2.33;;;;;;;2.18;100.00;101911.16;4785495;29;20113;-88
2021/01/14 04:31:05;;;;;;;12.38;1.25;;;;;;;2.33;100.00;101926.91;4791683;29;20083;-89
2021/01/14 04:33:30;;;;;;;5.10;1.10;;;;;;;2.27;100.00;101907.75;4799406;29;20034;-89
2021/01/14 04:35:58;;;;;;;16.52;1.50;;;;;;;2.30;100.00;101915.56;4792357;29;20026;-88
2021/01/14 04:38:26;;;;;;;12.35;1.20;;;;;;;2.32;100.00;101909.50;4822070;29;20018;-89
2021/01/14 04:41:04;;;;;;;4.45;1.20;;;;;;;2.28;100.00;101904.25;4810949;29;20053;-89
2021/01/14 04:43:31;;;;;;;12.98;1.35;;;;;;;2.25;100.00;101904.22;4801202;29;20034;-89
2021/01/14 04:46:06;;;;;;;10.18;2.75;;;;;;;2.20;100.00;101898.97;4783318;29;20422;-89
2021/01/14 04:48:40;;;;;;;6.22;1.90;;;;;;;2.13;99.20;101891.13;4809050;29;20031;-88
2021/01/14 04:51:17;;;;;;;1.55;0.77;;;;;;;2.28;100.00;101917.31;4794129;29;20030;-89
2021/01/14 04:53:44;;;;;;;4.47;1.08;;;;;;;2.18;100.00;101907.66;4790695;29;20514;-89
2021/01/14 04:56:11;;;;;;;5.68;1.52;;;;;;;2.13;100.00;101904.16;4785303;29;20035;-89
2021/01/14 04:58:38;;;;;;;5.47;1.20;;;;;;;2.16;100.00;101915.50;4806725;29;20037;-89
2021/01/14 05:01:19;;;;;;;20.02;3.25;;;;;;;2.32;100.00;101938.22;4789041;29;20035;-88
2021/01/14 05:03:49;;;;;;;6.85;1.58;;;;;;;2.14;100.00;101921.53;4790363;29;20054;-88
2021/01/14 05:06:22;;;;;;;9.43;1.60;;;;;;;2.10;100.00;101920.63;4783775;29;20086;-88
2021/01/14 05:08:55;;;;;;;6.70;1.40;;;;;;;2.14;100.00;101937.19;4806459;29;20040;-88
2021/01/14 05:11:25;;;;;;;9.63;1.42;;;;;;;2.14;100.00;101943.28;4805790;29;20041;-88
2021/01/14 05:13:50;;;;;;;12.05;1.48;;;;;;;2.19;100.00;101936.38;4791595;29;20046;-88
2021/01/14 05:16:16;;;;;;;12.50;1.70;;;;;;;2.21;100.00;101952.03;4790340;29;20110;-87
2021/01/14 05:18:41;;;;;;;4.32;1.42;;;;;;;2.12;100.00;101947.63;4787506;29;20180;-89
2021/01/14 05:21:07;;;;;;;9.80;1.42;;;;;;;1.99;100.00;101927.50;4801062;29;20129;-88
2021/01/14 05:23:32;;;;;;;13.63;1.70;;;;;;;2.16;100.00;101949.41;4801270;29;20047;-88
2021/01/14 05:26:00;;;;;;;8.20;1.38;;;;;;;2.09;100.00;101944.97;4788066;29;20038;-88
2021/01/14 05:28:27;;;;;;;9.52;2.47;;;;;;;2.17;100.00;101950.28;4803913;29;20043;-88
2021/01/14 05:30:53;;;;;;;6.90;1.80;;;;;;;1.99;100.00;101920.56;4796437;29;20039;-88
2021/01/14 05:33:23;;;;;;;12.90;1.50;;;;;;;2.14;100.00;101942.41;4791405;29;20366;-89
2021/01/14 05:35:51;;;;;;;7.97;1.45;;;;;;;2.11;100.00;101939.75;4795097;29;20038;-88
2021/01/14 05:38:25;;;;;;;12.15;1.23;;;;;;;2.18;100.00;101959.84;4808249;29;20541;-89
2021/01/14 05:41:40;;;;;;;7.40;1.35;;;;;;;2.09;100.00;101952.81;4809459;29;20887;-89
2021/01/14 05:44:00;;;;;;;7.57;1.45;;;;;;;2.07;100.00;101960.63;4796063;29;20050;-88
2021/01/14 05:46:31;;;;;;;6.88;1.80;;;;;;;2.10;100.00;101953.69;4787924;29;20559;-88
2021/01/14 05:49:00;;;;;;;11.77;1.85;;;;;;;2.10;100.00;101953.69;4792575;29;20049;-88
2021/01/14 05:51:35;;;;;;;11.90;1.90;;;;;;;2.11;100.00;101965.84;4800917;29;20034;-88
2021/01/14 05:54:05;;;;;;;10.25;2.78;;;;;;;1.90;100.00;101935.25;4804623;29;20038;-88
2021/01/14 05:56:33;;;;;;;6.72;1.77;;;;;;;2.05;100.00;101954.50;4798822;29;20039;-89
2021/01/14 05:59:00;;;;;;;13.90;3.53;;;;;;;1.86;100.00;101925.66;4796429;29;20117;-88
2021/01/14 06:01:26;;;;;;;8.65;2.03;;;;;;;2.00;100.00;101944.91;4793154;29;20039;-88
2021/01/14 06:03:51;;;;;;;16.00;2.00;;;;;;;1.84;100.00;101932.59;4797521;29;20854;-88
2021/01/14 06:06:17;;;;;;;9.52;1.67;;;;;;;1.86;100.00;101946.50;4799510;29;20031;-86
2021/01/14 06:08:43;;;;;;;14.48;2.55;;;;;;;1.73;100.00;101914.25;4793768;29;20042;-87
2021/01/14 06:11:23;;;;;;;12.73;2.55;;;;;;;1.78;100.00;101936.91;4792994;29;20107;-87
2021/01/14 06:13:50;;;;;;;21.08;2.03;;;;;;;1.83;100.00;101951.72;4781007;29;20035;-86
2021/01/14 06:16:16;;;;;;;7.88;2.40;;;;;;;1.70;100.00;101933.34;4790460;29;20511;-87
2021/01/14 06:19:04;;;;;;;8.20;2.25;;;;;;;1.69;100.00;101929.00;4824392;29;20046;-87
2021/01/14 06:21:43;;;;;;;12.95;2.53;;;;;;;1.78;100.00;101944.72;4812224;29;20053;-87
2021/01/14 06:24:17;;;;;;;10.10;2.40;;;;;;;1.80;100.00;101953.41;4806287;29;20123;-87
2021/01/14 06:26:43;;;;;;;9.90;2.80;;;;;;;1.68;100.00;101935.06;4810395;29;20037;-87
2021/01/14 06:29:32;;;;;;;7.15;1.90;;;;;;;1.63;100.00;101925.47;4811404;29;20034;-88
2021/01/14 06:32:10;;;;;;;8.13;1.98;;;;;;;1.70;100.00;101933.34;4813432;29;20054;-87
2021/01/14 06:34:37;;;;;;;14.93;2.17;;;;;;;1.85;100.00;101944.78;4827759;29;20038;-87
2021/01/14 06:37:12;;;;;;;6.57;1.42;;;;;;;1.87;100.00;101948.28;4812645;29;20029;-87
2021/01/14 06:39:51;;;;;;;6.35;1.92;;;;;;;1.79;100.00;101940.38;4808023;29;20034;-87
2021/01/14 06:42:29;;;;;;;8.15;1.50;;;;;;;1.89;100.00;101956.97;4804669;29;20043;-87
2021/01/14 06:45:05;;;;;;;9.27;1.50;;;;;;;1.91;100.00;101950.94;4806677;29;20856;-87
2021/01/14 06:47:45;;;;;;;6.18;1.52;;;;;;;1.88;99.75;101942.19;4810784;29;20037;-87
2021/01/14 06:50:19;;;;;;;15.45;1.98;;;;;;;2.10;100.00;101964.09;4809832;29;20041;-87
2021/01/14 06:53:01;;;;;;;10.20;1.83;;;;;;;2.06;98.86;101963.22;4805570;29;20130;-87
2021/01/14 06:55:34;;;;;;;13.85;1.50;;;;;;;2.04;98.35;101957.09;4815596;29;20754;-87
2021/01/14 06:58:15;;;;;;;3.53;0.98;;;;;;;2.15;99.22;101965.03;4817820;29;20121;-87
2021/01/14 07:00:46;;;;;;;4.43;1.17;;;;;;;2.13;98.84;101983.28;4820497;29;20045;-87
2021/01/14 07:03:20;;;;;;;8.40;1.48;;;;;;;2.10;97.97;101977.16;4804826;29;20022;-87
2021/01/14 07:05:52;;;;;;;6.60;1.35;;;;;;;2.16;97.34;101969.38;4809911;29;20038;-87
2021/01/14 07:08:37;;;;;;;6.90;1.05;;;;;;;2.15;97.06;101975.44;4820604;29;20127;-87
2021/01/14 07:11:13;;;;;;;8.48;5.70;;;;;;;2.22;96.93;101982.47;4800589;29;20111;-87
2021/01/14 07:13:43;;;;;;;;;;;;;;;2.18;97.55;101978.97;4787499;29;20399;-86
2021/01/14 07:16:14;;;;;;;5.30;1.63;;;;;;;2.06;97.66;101981.50;4800879;29;19925;-86
2021/01/14 07:18:40;;;;;;;7.85;2.38;;;;;;;2.12;97.61;101989.34;4826500;29;20152;-82
2021/01/14 07:21:32;;;;;;;6.55;1.65;;;;;;;2.11;97.20;101973.66;4797092;29;20094;-82
2021/01/14 07:24:03;;;;;;;7.85;1.52;;;;;;;2.21;96.59;101978.09;4816586;29;20054;-86
2021/01/14 07:26:29;;;;;;;7.50;2.28;;;;;;;2.28;97.31;101975.56;4793104;29;20656;-84
2021/01/14 07:28:55;;;;;;;10.98;1.30;;;;;;;2.22;96.80;101965.09;4788360;29;20042;-82
2021/01/14 07:31:26;;;;;;;8.07;1.20;;;;;;;2.23;96.87;101974.66;4792924;29;20391;-86
2021/01/14 07:33:55;;;;;;;6.70;1.17;;;;;;;2.12;97.68;101965.00;4798033;29;20045;-85
2021/01/14 07:36:25;;;;;;;9.90;1.80;;;;;;;2.28;98.89;101974.69;4795752;29;20091;-82
2021/01/14 07:38:55;;;;;;;13.48;1.63;;;;;;;2.19;98.09;101966.78;4815540;29;20098;-80
2021/01/14 07:41:22;;;;;;;8.25;1.60;;;;;;;2.22;97.93;101985.97;4803012;29;20058;-81
2021/01/14 07:43:51;;;;;;;11.65;1.40;;;;;;;2.13;98.49;101988.50;4792734;29;20030;-81
2021/01/14 07:46:20;;;;;;;8.60;2.00;;;;;;;2.16;98.47;101993.75;4807917;29;20117;-81
2021/01/14 07:48:46;;;;;;;8.32;1.25;;;;;;;2.14;98.33;101998.06;4794754;29;20142;-83
2021/01/14 07:51:13;;;;;;;11.95;1.80;;;;;;;2.13;98.11;101988.50;4807547;29;20654;-81
2021/01/14 07:53:39;;;;;;;11.82;1.55;;;;;;;2.24;97.82;102010.31;4786098;29;20034;-81
2021/01/14 07:56:26;;;;;;;12.40;2.53;;;;;;;2.26;98.20;102018.13;4791172;29;20042;-80
2021/01/14 07:58:55;;;;;;;7.65;1.30;;;;;;;2.35;98.39;102020.84;4794367;29;20027;-82
2021/01/14 08:01:20;;;;;;;10.40;1.77;;;;;;;2.30;97.39;102019.91;4799386;29;20041;-83
2021/01/14 08:03:46;;;;;;;9.25;1.35;;;;;;;2.24;97.16;102020.75;4818026;29;20113;-84
2021/01/14 08:06:22;;;;;;;6.57;1.17;;;;;;;2.22;97.79;102019.88;4810915;29;20046;-84
2021/01/14 08:08:55;;;;;;;8.68;1.52;;;;;;;2.31;97.46;102026.91;4796361;29;20051;-84
2021/01/14 08:11:23;;;;;;;5.15;1.20;;;;;;;2.26;97.54;102018.13;4804022;29;20037;-84
2021/01/14 08:14:11;;;;;;;17.10;2.00;;;;;;;2.26;97.29;102024.25;4813565;29;20121;-85
2021/01/14 08:16:49;;;;;;;6.65;1.88;;;;;;;2.32;96.28;102029.53;4809354;29;20062;-84
2021/01/14 08:19:58;;;;;;;5.22;1.45;;;;;;;2.26;96.35;102021.66;4795488;29;20066;-84
2021/01/14 08:22:25;;;;;;;7.22;1.63;;;;;;;2.31;97.09;102021.69;4750262;30;20055;-84
2021/01/14 08:25:46;;;;;;;8.77;1.80;;;;;;;2.40;95.93;102028.69;4770176;30;20094;-84
2021/01/14 08:28:12;;;;;;;5.40;1.15;;;;;;;2.31;96.04;102034.75;4752855;30;20058;-85
2021/01/14 08:35:03;;;;;;;7.68;1.58;;;;;;;2.39;96.59;102034.78;4781661;30;20054;-82
2021/01/14 08:38:13;;;;;;;10.63;1.38;;;;;;;2.38;96.30;102049.56;4774546;29;20052;-85
2021/01/14 08:51:48;;;;;;;18.50;5.83;;;;;;;2.45;96.06;102043.53;4698187;24;20055;-84
2021/01/14 09:25:55;;;;;;;19.00;4.45;;;;;;;2.59;93.78;102041.03;1277707;27;20051;-84
2021/01/14 09:28:58;;;;;;;12.55;3.42;;;;;;;2.71;92.49;102061.13;4817826;29;20038;-85
2021/01/14 09:31:46;;;;;;;6.60;1.73;;;;;;;2.63;93.37;102047.16;4784481;29;20051;-83
2021/01/14 09:45:59;;;;;;;9.63;2.15;;;;;;;2.79;93.40;102062.94;4825201;29;20122;-86
2021/01/14 09:55:46;;;;;;;9.68;3.72;;;;;;;2.91;91.88;102064.75;4741901;30;20192;-86
2021/01/14 10:45:46;;;;;;;5.82;1.90;;;;;;;2.87;91.39;102052.56;4798321;29;20097;-85
2021/01/14 11:22:41;;;;;;;7.15;2.08;;;;;;;3.10;91.24;102003.91;4831212;29;20055;-87
2021/01/14 11:25:17;;;;;;;7.03;2.40;;;;;;;3.22;91.10;101999.66;4810572;29;20487;-87
2021/01/14 11:29:03;;;;;;;6.07;1.40;;;;;;;3.27;89.87;101997.94;4779963;29;20109;-87
2021/01/14 11:32:05;;;;;;;3.40;1.42;;;;;;;3.19;88.72;101989.16;4769837;30;20062;-87
2021/01/14 11:34:33;;;;;;;8.88;1.92;;;;;;;2.94;88.23;101959.44;4758138;30;20024;-88
2021/01/14 11:40:43;;;;;;;7.43;1.48;;;;;;;3.40;87.87;101988.38;4712948;30;20047;-85
2021/01/14 11:46:31;;;;;;;9.18;2.22;;;;;;;3.37;86.51;101995.34;4763341;30;20163;-87
2021/01/14 11:48:56;;;;;;;16.27;3.83;;;;;;;3.32;87.07;101988.38;4748786;30;20135;-85
2021/01/14 11:54:48;;;;;;;8.85;2.72;;;;;;;3.71;86.72;101974.50;4744561;30;20059;-86
2021/01/14 11:57:13;;;;;;;12.70;3.95;;;;;;;3.47;86.01;101961.41;4738070;30;20032;-85
2021/01/14 12:39:09;;;;;;;8.70;2.88;;;;;;;3.78;87.74;101923.09;4818531;29;20066;-83
2021/01/14 12:45:46;;;;;;;8.18;1.77;;;;;;;3.93;87.20;101940.56;4732358;30;20518;-84
2021/01/14 12:49:00;;;;;;;10.80;2.30;;;;;;;3.86;87.21;101918.72;4721772;30;20042;-85
2021/01/14 12:51:51;;;;;;;11.43;1.88;;;;;;;3.88;87.26;101930.09;4683765;30;20055;-85
2021/01/14 12:55:11;;;;;;;6.15;1.92;;;;;;;4.02;86.56;101927.50;4686089;30;20217;-84
2021/01/14 12:57:47;;;;;;;9.32;2.15;;;;;;;3.91;86.96;101898.69;4698017;30;20136;-85
2021/01/14 13:00:38;;;;;;;6.75;2.53;;;;;;;3.98;86.45;101920.50;4682044;30;20641;-85
2021/01/14 13:03:32;;;;;;;4.57;1.50;;;;;;;3.76;86.98;101914.38;4683624;30;20053;-84
2021/01/14 13:05:58;;;;;;;9.65;2.45;;;;;;;3.72;87.09;101896.97;4694904;30;20041;-85
2021/01/14 13:18:05;;;;;;;4.75;1.48;;;;;;;3.50;88.19;101878.63;4798650;29;19986;-86
2021/01/14 13:20:36;;;;;;;13.98;3.03;;;;;;;3.36;88.58;101883.84;4788960;29;20035;-85
2021/01/14 13:23:02;;;;;;;6.78;2.25;;;;;;;3.45;88.81;101884.72;4786736;29;20027;-83
2021/01/14 13:26:07;;;;;;;5.70;2.28;;;;;;;3.44;89.06;101876.00;4788220;29;20047;-85
2021/01/14 13:28:58;;;;;;;6.88;1.90;;;;;;;3.34;88.76;101853.34;4729230;30;20047;-86
2021/01/14 13:31:27;;;;;;;11.68;2.50;;;;;;;3.47;88.96;101868.19;4734739;30;20041;-86
2021/01/14 13:33:54;;;;;;;8.68;1.83;;;;;;;3.40;89.13;101863.78;4731700;30;20128;-85
2021/01/14 13:36:38;;;;;;;9.73;2.10;;;;;;;3.53;88.90;101872.53;4734800;30;20042;-85
2021/01/14 13:39:23;;;;;;;12.82;1.95;;;;;;;3.50;87.49;101857.72;4721934;30;20041;-86
2021/01/14 13:42:15;;;;;;;12.73;2.45;;;;;;;3.55;89.78;101870.78;4739224;30;20056;-85
2021/01/14 13:45:36;;;;;;;3.47;1.60;;;;;;;3.50;89.00;101875.13;4731117;30;20083;-86
2021/01/14 13:49:07;;;;;;;15.02;2.13;;;;;;;3.63;89.07;101876.91;4718392;30;20125;-86
2021/01/14 13:54:10;;;;;;;6.47;2.50;;;;;;;3.40;87.73;101858.56;4808678;24;20058;-85
2021/01/14 13:56:45;;;;;;;10.60;1.98;;;;;;;3.53;87.29;101859.47;4786415;29;20035;-85
2021/01/14 13:59:22;;;;;;;8.25;2.85;;;;;;;3.55;87.98;101866.44;4803496;29;20042;-86
2021/01/14 14:08:46;;;;;;;6.80;2.65;;;;;;;2.80;90.90;101860.16;4803811;29;20041;-87
2021/01/14 14:11:16;;;;;;;10.20;3.25;;;;;;;2.70;91.54;101848.81;4789864;29;20109;-84
2021/01/14 14:13:53;;;;;;;11.05;3.83;;;;;;;2.57;92.07;101847.03;4815091;29;20087;-85
2021/01/14 14:16:19;;;;;;;14.20;3.67;;;;;;;2.71;91.87;101879.28;4798944;29;20037;-86
2021/01/14 14:30:49;;;;;;;18.67;6.80;;;;;;;2.50;93.11;101887.00;4813938;24;20063;-86
2021/01/14 14:36:26;;;;;;;10.85;4.82;;;;;;;2.44;90.70;101890.44;4767317;30;20604;-84
2021/01/14 14:39:30;;;;;;;16.50;6.07;;;;;;;2.46;91.10;101893.94;4773238;30;20089;-86
2021/01/14 14:41:55;;;;;;;13.30;5.55;;;;;;;2.40;92.17;101904.31;4768336;30;20154;-85
2021/01/14 14:48:24;;;;;;;12.88;5.07;;;;;;;2.20;90.68;101867.69;4769305;30;20046;-87
2021/01/14 14:50:50;;;;;;;18.52;6.22;;;;;;;2.35;91.82;101895.59;4766336;30;20084;-86
2021/01/14 14:56:44;;;;;;;19.67;6.78;;;;;;;2.24;92.74;101879.00;4737882;30;20079;-86
2021/01/14 14:59:21;;;;;;;20.52;6.65;;;;;;;2.33;93.24;101881.69;4736164;30;20044;-87
2021/01/14 15:02:04;;;;;;;12.50;5.78;;;;;;;2.29;92.24;101878.19;4729583;30;20064;-87
2021/01/14 15:04:30;;;;;;;9.18;5.30;;;;;;;2.32;92.60;101898.22;4734852;30;20116;-85
2021/01/14 15:06:55;;;;;;;11.43;3.60;;;;;;;2.25;92.99;101899.00;4751086;30;20126;-86
2021/01/14 15:09:22;;;;;;;10.73;3.80;;;;;;;2.16;92.18;101878.06;4770087;30;20047;-86
2021/01/14 15:11:48;;;;;;;7.28;3.90;;;;;;;2.27;92.92;101900.78;4755924;30;20043;-85
2021/01/14 15:14:16;;;;;;;9.48;3.97;;;;;;;2.00;92.12;101879.72;4765360;30;20048;-85
2021/01/14 15:17:34;;;;;;;9.43;3.58;;;;;;;2.14;92.92;101908.50;4767163;30;20441;-87
2021/01/14 15:24:29;;;;;;;6.40;3.35;;;;;;;2.02;91.43;101904.09;4831003;24;21080;-86
2021/01/14 15:27:15;;;;;;;21.60;7.30;;;;;;;1.99;91.92;101906.66;4807646;24;20062;-85
2021/01/14 15:29:41;;;;;;;10.57;4.88;;;;;;;1.91;92.17;101906.63;4806182;29;20065;-84
2021/01/14 15:32:07;;;;;;;11.73;5.90;;;;;;;1.94;92.78;101909.22;4829877;29;20795;-85
2021/01/14 15:34:32;;;;;;;15.10;5.93;;;;;;;1.91;92.85;101900.50;4808061;29;20026;-85
2021/01/14 15:36:58;;;;;;;16.15;6.38;;;;;;;1.94;92.20;101906.63;4827877;29;20098;-85
2021/01/14 15:39:24;;;;;;;10.48;5.25;;;;;;;1.85;92.30;101906.53;4810935;29;20428;-86
2021/01/14 15:41:55;;;;;;;10.60;4.38;;;;;;;1.88;92.42;101916.13;4814853;29;20052;-87
2021/01/14 15:44:20;;;;;;;13.23;3.83;;;;;;;1.72;92.09;101895.16;4808549;29;20038;-87
2021/01/14 15:46:46;;;;;;;10.95;4.63;;;;;;;1.64;92.56;101894.19;4810108;29;20045;-87
2021/01/14 15:49:31;;;;;;;12.90;4.07;;;;;;;1.71;92.06;101905.56;4814764;29;20756;-88
2021/01/14 15:51:56;;;;;;;6.97;3.92;;;;;;;1.69;92.79;101910.75;4830139;29;20491;-88
2021/01/14 15:54:22;;;;;;;7.80;3.05;;;;;;;1.61;92.44;101909.81;4806384;29;20042;-88
2021/01/14 15:56:50;;;;;;;10.52;4.22;;;;;;;1.51;93.40;101889.75;4810319;29;20035;-87
2021/01/14 15:59:45;;;;;;;10.27;4.38;;;;;;;1.67;93.49;101919.44;4807727;29;20026;-87